sensor_id;sensor_type;location;lat;lon;timestamp;temperature;humidity
20380;DHT22;10349;48.666;8.948;2023-03-14T00:00:52;8.60;99.90
20380;DHT22;10349;48.666;8.948;2023-03-14T00:03:17;8.60;99.90
20380;DHT22;10349;48.666;8.948;2023-03-14T00:05:43;8.50;99.90
20380;DHT22;10349;48.666;8.948;2023-03-14T00:08:09;8.60;99.90
20380;DHT22;10349;48.666;8.948;2023-03-14T00:10:36;8.50;99.90
20380;DHT22;10349;48.666;8.948;2023-03-14T00:13:02;8.50;99.90
20380;DHT22;10349;48.666;8.948;2023-03-14T00:15:27;8.50;99.90
20380;DHT22;10349;48.666;8.948;2023-03-14T00:17:53;8.50;99.90
20380;DHT22;10349;48.666;8.948;2023-03-14T00:20:19;8.50;99.90
20380;DHT22;10349;48.666;8.948;2023-03-14T00:22:44;8.50;99.90
20380;DHT22;10349;48.666;8.948;2023-03-14T00:25:11;8.50;99.90
20380;DHT22;10349;48.666;8.948;2023-03-14T00:27:37;8.50;99.90
20380;DHT22;10349;48.666;8.948;2023-03-14T00:30:05;8.50;99.90
20380;DHT22;10349;48.666;8.948;2023-03-14T00:32:33;8.50;99.90
20380;DHT22;10349;48.666;8.948;2023-03-14T00:34:59;8.60;99.90
20380;DHT22;10349;48.666;8.948;2023-03-14T00:37:26;8.60;99.90
20380;DHT22;10349;48.666;8.948;2023-03-14T00:39:52;8.50;99.90
20380;DHT22;10349;48.666;8.948;2023-03-14T00:42:18;8.50;99.90
20380;DHT22;10349;48.666;8.948;2023-03-14T00:44:44;8.60;99.90
20380;DHT22;10349;48.666;8.948;2023-03-14T00:47:09;8.50;99.90
20380;DHT22;10349;48.666;8.948;2023-03-14T00:49:35;8.50;99.90
20380;DHT22;10349;48.666;8.948;2023-03-14T00:52:00;8.50;99.90
20380;DHT22;10349;48.666;8.948;2023-03-14T00:54:26;8.50;99.90
20380;DHT22;10349;48.666;8.948;2023-03-14T00:56:52;8.50;99.90
20380;DHT22;10349;48.666;8.948;2023-03-14T00:59:17;8.60;99.90
20380;DHT22;10349;48.666;8.948;2023-03-14T01:01:43;8.60;99.90
20380;DHT22;10349;48.666;8.948;2023-03-14T01:04:09;8.60;99.90
20380;DHT22;10349;48.666;8.948;2023-03-14T01:06:35;8.60;99.90
20380;DHT22;10349;48.666;8.948;2023-03-14T01:09:01;8.60;99.90
20380;DHT22;10349;48.666;8.948;2023-03-14T01:11:28;8.60;99.90
20380;DHT22;10349;48.666;8.948;2023-03-14T01:13:56;8.60;99.90
20380;DHT22;10349;48.666;8.948;2023-03-14T01:16:25;8.70;99.90
20380;DHT22;10349;48.666;8.948;2023-03-14T01:18:50;8.70;99.90
20380;DHT22;10349;48.666;8.948;2023-03-14T01:21:23;8.70;99.90
20380;DHT22;10349;48.666;8.948;2023-03-14T01:23:49;8.60;99.90
20380;DHT22;10349;48.666;8.948;2023-03-14T01:26:18;8.70;99.90
20380;DHT22;10349;48.666;8.948;2023-03-14T01:28:48;8.70;99.90
20380;DHT22;10349;48.666;8.948;2023-03-14T01:31:15;8.70;99.90
20380;DHT22;10349;48.666;8.948;2023-03-14T01:33:41;8.70;99.90
20380;DHT22;10349;48.666;8.948;2023-03-14T01:36:09;8.70;99.90
20380;DHT22;10349;48.666;8.948;2023-03-14T01:38:36;8.70;99.90
20380;DHT22;10349;48.666;8.948;2023-03-14T01:41:03;8.70;99.90
20380;DHT22;10349;48.666;8.948;2023-03-14T01:43:29;8.70;99.90
20380;DHT22;10349;48.666;8.948;2023-03-14T01:48:36;8.60;99.90
20380;DHT22;10349;48.666;8.948;2023-03-14T01:51:04;8.60;99.90
20380;DHT22;10349;48.666;8.948;2023-03-14T01:53:32;8.60;99.90
20380;DHT22;10349;48.666;8.948;2023-03-14T01:55:59;8.50;99.90
20380;DHT22;10349;48.666;8.948;2023-03-14T01:58:27;8.50;99.90
20380;DHT22;10349;48.666;8.948;2023-03-14T02:00:54;8.40;99.90
20380;DHT22;10349;48.666;8.948;2023-03-14T02:03:24;8.50;99.90
20380;DHT22;10349;48.666;8.948;2023-03-14T02:05:51;8.40;99.90
20380;DHT22;10349;48.666;8.948;2023-03-14T02:08:20;8.50;99.90
20380;DHT22;10349;48.666;8.948;2023-03-14T02:10:52;8.50;99.90
20380;DHT22;10349;48.666;8.948;2023-03-14T02:13:31;8.50;99.90
20380;DHT22;10349;48.666;8.948;2023-03-14T02:16:11;8.50;99.90
20380;DHT22;10349;48.666;8.948;2023-03-14T02:18:52;8.40;99.90
20380;DHT22;10349;48.666;8.948;2023-03-14T02:21:47;8.40;99.90
20380;DHT22;10349;48.666;8.948;2023-03-14T02:27:09;8.40;99.90
20380;DHT22;10349;48.666;8.948;2023-03-14T02:29:44;8.40;99.90
20380;DHT22;10349;48.666;8.948;2023-03-14T02:32:11;8.40;99.90
20380;DHT22;10349;48.666;8.948;2023-03-14T02:34:41;8.40;99.90
20380;DHT22;10349;48.666;8.948;2023-03-14T02:37:08;8.40;99.90
20380;DHT22;10349;48.666;8.948;2023-03-14T02:39:43;8.40;99.90
20380;DHT22;10349;48.666;8.948;2023-03-14T02:42:11;8.40;99.90
20380;DHT22;10349;48.666;8.948;2023-03-14T02:44:51;8.40;99.90
20380;DHT22;10349;48.666;8.948;2023-03-14T02:47:22;8.40;99.90
20380;DHT22;10349;48.666;8.948;2023-03-14T02:49:48;8.40;99.90
20380;DHT22;10349;48.666;8.948;2023-03-14T02:52:13;8.40;99.90
20380;DHT22;10349;48.666;8.948;2023-03-14T02:54:39;8.40;99.90
20380;DHT22;10349;48.666;8.948;2023-03-14T02:57:04;8.40;99.90
20380;DHT22;10349;48.666;8.948;2023-03-14T02:59:30;8.40;99.90
20380;DHT22;10349;48.666;8.948;2023-03-14T03:02:00;8.30;99.90
20380;DHT22;10349;48.666;8.948;2023-03-14T03:04:26;8.30;99.90
20380;DHT22;10349;48.666;8.948;2023-03-14T03:06:51;8.30;99.90
20380;DHT22;10349;48.666;8.948;2023-03-14T03:09:17;8.30;99.90
20380;DHT22;10349;48.666;8.948;2023-03-14T03:11:43;8.30;99.90
20380;DHT22;10349;48.666;8.948;2023-03-14T03:14:14;8.30;99.90
20380;DHT22;10349;48.666;8.948;2023-03-14T03:16:39;8.30;99.90
20380;DHT22;10349;48.666;8.948;2023-03-14T03:19:05;8.20;99.90
20380;DHT22;10349;48.666;8.948;2023-03-14T03:21:31;8.20;99.90
20380;DHT22;10349;48.666;8.948;2023-03-14T03:23:56;8.10;99.90
20380;DHT22;10349;48.666;8.948;2023-03-14T03:26:22;8.10;99.90
20380;DHT22;10349;48.666;8.948;2023-03-14T03:28:50;8.10;99.90
20380;DHT22;10349;48.666;8.948;2023-03-14T03:31:16;8.10;99.90
20380;DHT22;10349;48.666;8.948;2023-03-14T03:33:42;8.10;99.90
20380;DHT22;10349;48.666;8.948;2023-03-14T03:36:08;8.10;99.90
20380;DHT22;10349;48.666;8.948;2023-03-14T03:38:36;8.10;99.90
20380;DHT22;10349;48.666;8.948;2023-03-14T03:41:07;8.20;99.90
20380;DHT22;10349;48.666;8.948;2023-03-14T03:43:33;8.20;99.90
20380;DHT22;10349;48.666;8.948;2023-03-14T03:46:03;8.10;99.90
20380;DHT22;10349;48.666;8.948;2023-03-14T03:48:29;8.20;99.90
20380;DHT22;10349;48.666;8.948;2023-03-14T03:50:54;8.10;99.90
20380;DHT22;10349;48.666;8.948;2023-03-14T03:53:22;8.10;99.90
20380;DHT22;10349;48.666;8.948;2023-03-14T03:55:48;8.00;99.90
20380;DHT22;10349;48.666;8.948;2023-03-14T03:58:13;8.00;99.90
20380;DHT22;10349;48.666;8.948;2023-03-14T04:00:39;8.00;99.90
20380;DHT22;10349;48.666;8.948;2023-03-14T04:03:08;8.00;99.90
20380;DHT22;10349;48.666;8.948;2023-03-14T04:05:34;8.00;99.90
20380;DHT22;10349;48.666;8.948;2023-03-14T04:08:06;8.00;99.90
20380;DHT22;10349;48.666;8.948;2023-03-14T04:10:34;7.90;99.90
20380;DHT22;10349;48.666;8.948;2023-03-14T04:13:13;8.00;99.90
20380;DHT22;10349;48.666;8.948;2023-03-14T04:15:41;8.00;99.90
20380;DHT22;10349;48.666;8.948;2023-03-14T04:18:12;8.00;99.90
20380;DHT22;10349;48.666;8.948;2023-03-14T04:20:38;8.00;99.90
20380;DHT22;10349;48.666;8.948;2023-03-14T04:23:04;7.90;99.90
20380;DHT22;10349;48.666;8.948;2023-03-14T04:25:30;7.90;99.90
20380;DHT22;10349;48.666;8.948;2023-03-14T04:27:57;7.90;99.90
20380;DHT22;10349;48.666;8.948;2023-03-14T04:30:27;7.90;99.90
20380;DHT22;10349;48.666;8.948;2023-03-14T04:32:58;7.90;99.90
20380;DHT22;10349;48.666;8.948;2023-03-14T04:35:25;7.90;99.90
20380;DHT22;10349;48.666;8.948;2023-03-14T04:37:55;7.80;99.90
20380;DHT22;10349;48.666;8.948;2023-03-14T04:40:24;7.80;99.90
20380;DHT22;10349;48.666;8.948;2023-03-14T04:42:52;7.80;99.90
20380;DHT22;10349;48.666;8.948;2023-03-14T04:45:18;7.80;99.90
20380;DHT22;10349;48.666;8.948;2023-03-14T04:47:44;7.80;99.90
20380;DHT22;10349;48.666;8.948;2023-03-14T04:50:13;7.80;99.90
20380;DHT22;10349;48.666;8.948;2023-03-14T04:52:39;7.80;99.90
20380;DHT22;10349;48.666;8.948;2023-03-14T04:55:05;7.70;99.90
20380;DHT22;10349;48.666;8.948;2023-03-14T04:57:31;7.80;99.90
20380;DHT22;10349;48.666;8.948;2023-03-14T04:59:57;7.80;99.90
20380;DHT22;10349;48.666;8.948;2023-03-14T05:02:45;7.70;99.90
20380;DHT22;10349;48.666;8.948;2023-03-14T05:05:29;7.70;99.90
20380;DHT22;10349;48.666;8.948;2023-03-14T05:08:07;7.70;99.90
20380;DHT22;10349;48.666;8.948;2023-03-14T05:10:56;7.70;99.90
20380;DHT22;10349;48.666;8.948;2023-03-14T05:13:48;7.60;99.90
20380;DHT22;10349;48.666;8.948;2023-03-14T05:16:38;7.60;99.90
20380;DHT22;10349;48.666;8.948;2023-03-14T05:19:24;7.60;99.90
20380;DHT22;10349;48.666;8.948;2023-03-14T05:22:25;7.60;99.90
20380;DHT22;10349;48.666;8.948;2023-03-14T05:25:11;7.70;99.90
20380;DHT22;10349;48.666;8.948;2023-03-14T05:27:55;7.70;99.90
20380;DHT22;10349;48.666;8.948;2023-03-14T05:30:30;7.70;99.90
20380;DHT22;10349;48.666;8.948;2023-03-14T05:33:36;7.80;99.90
20380;DHT22;10349;48.666;8.948;2023-03-14T05:36:02;7.80;99.90
20380;DHT22;10349;48.666;8.948;2023-03-14T05:38:51;7.70;99.90
20380;DHT22;10349;48.666;8.948;2023-03-14T05:41:42;7.80;99.90
20380;DHT22;10349;48.666;8.948;2023-03-14T05:44:26;7.80;99.90
20380;DHT22;10349;48.666;8.948;2023-03-14T05:47:01;7.70;99.90
20380;DHT22;10349;48.666;8.948;2023-03-14T05:49:33;7.80;99.90
20380;DHT22;10349;48.666;8.948;2023-03-14T05:52:17;7.80;99.90
20380;DHT22;10349;48.666;8.948;2023-03-14T05:54:54;7.80;99.90
20380;DHT22;10349;48.666;8.948;2023-03-14T05:57:36;7.70;99.90
20380;DHT22;10349;48.666;8.948;2023-03-14T06:00:22;7.70;99.90
20380;DHT22;10349;48.666;8.948;2023-03-14T06:03:02;7.70;99.90
20380;DHT22;10349;48.666;8.948;2023-03-14T06:05:32;7.70;99.90
20380;DHT22;10349;48.666;8.948;2023-03-14T06:08:00;7.80;99.90
20380;DHT22;10349;48.666;8.948;2023-03-14T06:10:27;7.80;99.90
20380;DHT22;10349;48.666;8.948;2023-03-14T06:12:53;7.90;99.90
20380;DHT22;10349;48.666;8.948;2023-03-14T06:15:20;8.00;99.90
20380;DHT22;10349;48.666;8.948;2023-03-14T06:18:01;8.00;99.90
20380;DHT22;10349;48.666;8.948;2023-03-14T06:20:28;8.00;99.90
20380;DHT22;10349;48.666;8.948;2023-03-14T06:22:53;8.00;99.90
20380;DHT22;10349;48.666;8.948;2023-03-14T06:25:19;8.00;99.90
20380;DHT22;10349;48.666;8.948;2023-03-14T06:27:47;8.10;99.90
20380;DHT22;10349;48.666;8.948;2023-03-14T06:30:13;8.10;99.90
20380;DHT22;10349;48.666;8.948;2023-03-14T06:32:39;8.10;99.90
20380;DHT22;10349;48.666;8.948;2023-03-14T06:35:08;8.20;99.90
20380;DHT22;10349;48.666;8.948;2023-03-14T06:37:39;8.20;99.90
20380;DHT22;10349;48.666;8.948;2023-03-14T06:40:05;8.30;99.90
20380;DHT22;10349;48.666;8.948;2023-03-14T06:42:49;8.30;99.90
20380;DHT22;10349;48.666;8.948;2023-03-14T06:45:16;8.30;99.90
20380;DHT22;10349;48.666;8.948;2023-03-14T06:47:42;8.40;99.90
20380;DHT22;10349;48.666;8.948;2023-03-14T06:50:09;8.40;99.90
20380;DHT22;10349;48.666;8.948;2023-03-14T06:52:36;8.50;99.90
20380;DHT22;10349;48.666;8.948;2023-03-14T06:55:02;8.60;99.90
20380;DHT22;10349;48.666;8.948;2023-03-14T06:57:28;8.70;99.90
20380;DHT22;10349;48.666;8.948;2023-03-14T06:59:54;8.70;99.90
20380;DHT22;10349;48.666;8.948;2023-03-14T07:02:20;8.70;99.90
20380;DHT22;10349;48.666;8.948;2023-03-14T07:04:47;8.80;99.90
20380;DHT22;10349;48.666;8.948;2023-03-14T07:07:13;8.80;99.90
20380;DHT22;10349;48.666;8.948;2023-03-14T07:09:39;8.80;99.90
20380;DHT22;10349;48.666;8.948;2023-03-14T07:12:05;8.80;99.90
20380;DHT22;10349;48.666;8.948;2023-03-14T07:14:31;8.70;99.90
20380;DHT22;10349;48.666;8.948;2023-03-14T07:16:56;8.70;99.90
20380;DHT22;10349;48.666;8.948;2023-03-14T07:19:22;8.80;99.90
20380;DHT22;10349;48.666;8.948;2023-03-14T07:21:48;8.90;99.90
20380;DHT22;10349;48.666;8.948;2023-03-14T07:24:18;8.90;99.90
20380;DHT22;10349;48.666;8.948;2023-03-14T07:26:44;9.00;99.90
20380;DHT22;10349;48.666;8.948;2023-03-14T07:29:10;9.10;99.90
20380;DHT22;10349;48.666;8.948;2023-03-14T07:31:36;9.10;99.90
20380;DHT22;10349;48.666;8.948;2023-03-14T07:34:02;9.20;99.90
20380;DHT22;10349;48.666;8.948;2023-03-14T07:36:32;9.20;99.90
20380;DHT22;10349;48.666;8.948;2023-03-14T07:38:58;9.30;99.90
20380;DHT22;10349;48.666;8.948;2023-03-14T07:41:47;9.40;99.90
20380;DHT22;10349;48.666;8.948;2023-03-14T07:44:41;9.40;99.90
20380;DHT22;10349;48.666;8.948;2023-03-14T07:47:07;9.50;99.90
20380;DHT22;10349;48.666;8.948;2023-03-14T07:49:33;9.60;99.90
20380;DHT22;10349;48.666;8.948;2023-03-14T07:51:59;9.70;99.90
20380;DHT22;10349;48.666;8.948;2023-03-14T07:54:24;9.80;99.90
20380;DHT22;10349;48.666;8.948;2023-03-14T07:56:51;10.00;99.90
20380;DHT22;10349;48.666;8.948;2023-03-14T07:59:18;10.00;99.90
20380;DHT22;10349;48.666;8.948;2023-03-14T08:01:43;10.00;99.90
20380;DHT22;10349;48.666;8.948;2023-03-14T08:04:09;10.10;99.90
20380;DHT22;10349;48.666;8.948;2023-03-14T08:06:36;10.30;99.90
20380;DHT22;10349;48.666;8.948;2023-03-14T08:09:02;10.30;99.90
20380;DHT22;10349;48.666;8.948;2023-03-14T08:11:28;10.40;99.90
20380;DHT22;10349;48.666;8.948;2023-03-14T08:13:54;10.40;99.90
20380;DHT22;10349;48.666;8.948;2023-03-14T08:16:21;10.50;99.90
20380;DHT22;10349;48.666;8.948;2023-03-14T08:18:47;10.70;99.90
20380;DHT22;10349;48.666;8.948;2023-03-14T08:21:13;10.80;99.90
20380;DHT22;10349;48.666;8.948;2023-03-14T08:23:39;11.00;99.90
20380;DHT22;10349;48.666;8.948;2023-03-14T08:26:06;11.00;99.90
20380;DHT22;10349;48.666;8.948;2023-03-14T08:28:31;10.90;99.90
20380;DHT22;10349;48.666;8.948;2023-03-14T08:30:59;10.80;99.90
20380;DHT22;10349;48.666;8.948;2023-03-14T08:33:26;10.60;99.90
20380;DHT22;10349;48.666;8.948;2023-03-14T08:35:53;10.50;99.90
20380;DHT22;10349;48.666;8.948;2023-03-14T08:38:19;10.40;99.90
20380;DHT22;10349;48.666;8.948;2023-03-14T08:40:45;10.30;99.90
20380;DHT22;10349;48.666;8.948;2023-03-14T08:43:11;10.30;99.90
20380;DHT22;10349;48.666;8.948;2023-03-14T08:45:36;10.30;99.90
20380;DHT22;10349;48.666;8.948;2023-03-14T08:48:02;10.40;99.90
20380;DHT22;10349;48.666;8.948;2023-03-14T08:50:28;10.30;99.90
20380;DHT22;10349;48.666;8.948;2023-03-14T08:52:54;10.20;99.90
20380;DHT22;10349;48.666;8.948;2023-03-14T08:55:19;10.10;99.90
20380;DHT22;10349;48.666;8.948;2023-03-14T08:57:45;9.90;99.90
20380;DHT22;10349;48.666;8.948;2023-03-14T09:00:12;9.80;99.90
20380;DHT22;10349;48.666;8.948;2023-03-14T09:02:41;9.70;99.90
20380;DHT22;10349;48.666;8.948;2023-03-14T09:05:09;9.50;99.90
20380;DHT22;10349;48.666;8.948;2023-03-14T09:07:35;9.50;99.90
20380;DHT22;10349;48.666;8.948;2023-03-14T09:10:01;9.40;99.90
20380;DHT22;10349;48.666;8.948;2023-03-14T09:12:27;9.40;99.90
20380;DHT22;10349;48.666;8.948;2023-03-14T09:14:53;9.50;99.90
20380;DHT22;10349;48.666;8.948;2023-03-14T09:17:18;9.50;99.90
20380;DHT22;10349;48.666;8.948;2023-03-14T09:19:44;9.60;99.90
20380;DHT22;10349;48.666;8.948;2023-03-14T09:22:10;9.70;99.90
20380;DHT22;10349;48.666;8.948;2023-03-14T09:24:35;9.80;99.90
20380;DHT22;10349;48.666;8.948;2023-03-14T09:27:01;9.80;99.90
20380;DHT22;10349;48.666;8.948;2023-03-14T09:29:27;9.80;99.90
20380;DHT22;10349;48.666;8.948;2023-03-14T09:31:53;9.90;99.90
20380;DHT22;10349;48.666;8.948;2023-03-14T09:34:18;9.90;99.90
20380;DHT22;10349;48.666;8.948;2023-03-14T09:36:44;9.90;99.90
20380;DHT22;10349;48.666;8.948;2023-03-14T09:39:11;10.00;99.90
20380;DHT22;10349;48.666;8.948;2023-03-14T09:41:39;9.90;99.90
20380;DHT22;10349;48.666;8.948;2023-03-14T09:46:51;9.90;99.90
20380;DHT22;10349;48.666;8.948;2023-03-14T09:49:30;10.00;99.90
20380;DHT22;10349;48.666;8.948;2023-03-14T09:52:00;10.00;99.90
20380;DHT22;10349;48.666;8.948;2023-03-14T09:54:47;10.00;99.90
20380;DHT22;10349;48.666;8.948;2023-03-14T09:57:23;10.10;99.90
20380;DHT22;10349;48.666;8.948;2023-03-14T09:59:50;10.30;99.90
20380;DHT22;10349;48.666;8.948;2023-03-14T10:02:20;10.40;99.90
20380;DHT22;10349;48.666;8.948;2023-03-14T10:04:48;10.50;99.90
20380;DHT22;10349;48.666;8.948;2023-03-14T10:07:16;10.60;99.90
20380;DHT22;10349;48.666;8.948;2023-03-14T10:09:45;10.60;99.90
20380;DHT22;10349;48.666;8.948;2023-03-14T10:12:13;10.80;99.90
20380;DHT22;10349;48.666;8.948;2023-03-14T10:14:46;10.90;99.90
20380;DHT22;10349;48.666;8.948;2023-03-14T10:17:13;10.90;99.90
20380;DHT22;10349;48.666;8.948;2023-03-14T10:19:59;10.90;99.90
20380;DHT22;10349;48.666;8.948;2023-03-14T10:22:32;10.80;99.90
20380;DHT22;10349;48.666;8.948;2023-03-14T10:25:04;10.70;99.90
20380;DHT22;10349;48.666;8.948;2023-03-14T10:27:35;10.70;99.90
20380;DHT22;10349;48.666;8.948;2023-03-14T10:30:07;10.80;99.90
20380;DHT22;10349;48.666;8.948;2023-03-14T10:32:36;10.70;99.90
20380;DHT22;10349;48.666;8.948;2023-03-14T10:35:19;10.80;99.90
20380;DHT22;10349;48.666;8.948;2023-03-14T10:38:00;10.70;99.90
20380;DHT22;10349;48.666;8.948;2023-03-14T10:40:34;10.70;99.90
20380;DHT22;10349;48.666;8.948;2023-03-14T10:43:05;10.70;99.90
20380;DHT22;10349;48.666;8.948;2023-03-14T10:45:36;10.60;99.90
20380;DHT22;10349;48.666;8.948;2023-03-14T10:51:11;10.40;99.90
20380;DHT22;10349;48.666;8.948;2023-03-14T10:53:49;10.40;99.90
20380;DHT22;10349;48.666;8.948;2023-03-14T10:56:22;10.40;99.90
20380;DHT22;10349;48.666;8.948;2023-03-14T10:58:52;10.40;99.90
20380;DHT22;10349;48.666;8.948;2023-03-14T11:03:56;10.30;99.90
20380;DHT22;10349;48.666;8.948;2023-03-14T11:06:43;10.20;99.90
20380;DHT22;10349;48.666;8.948;2023-03-14T11:09:28;10.10;99.90
20380;DHT22;10349;48.666;8.948;2023-03-14T11:12:08;10.10;99.90
20380;DHT22;10349;48.666;8.948;2023-03-14T11:14:43;10.00;99.90
20380;DHT22;10349;48.666;8.948;2023-03-14T11:17:20;10.00;99.90
20380;DHT22;10349;48.666;8.948;2023-03-14T11:23:17;9.80;99.90
20380;DHT22;10349;48.666;8.948;2023-03-14T11:28:31;9.70;99.90
20380;DHT22;10349;48.666;8.948;2023-03-14T11:33:52;9.50;99.90
20380;DHT22;10349;48.666;8.948;2023-03-14T11:36:33;9.60;99.90
20380;DHT22;10349;48.666;8.948;2023-03-14T11:39:00;9.70;99.90
20380;DHT22;10349;48.666;8.948;2023-03-14T11:41:36;9.70;99.90
20380;DHT22;10349;48.666;8.948;2023-03-14T11:44:15;9.70;99.90
20380;DHT22;10349;48.666;8.948;2023-03-14T11:49:26;9.60;99.90
20380;DHT22;10349;48.666;8.948;2023-03-14T11:51:58;9.70;99.90
20380;DHT22;10349;48.666;8.948;2023-03-14T11:57:17;9.70;99.90
20380;DHT22;10349;48.666;8.948;2023-03-14T12:02:43;9.50;99.90
20380;DHT22;10349;48.666;8.948;2023-03-14T12:11:01;9.30;99.90
20380;DHT22;10349;48.666;8.948;2023-03-14T12:13:29;9.30;99.90
20380;DHT22;10349;48.666;8.948;2023-03-14T12:16:00;9.40;99.90
20380;DHT22;10349;48.666;8.948;2023-03-14T12:18:31;9.50;99.90
20380;DHT22;10349;48.666;8.948;2023-03-14T12:21:02;9.40;99.90
20380;DHT22;10349;48.666;8.948;2023-03-14T12:23:36;9.20;99.90
20380;DHT22;10349;48.666;8.948;2023-03-14T12:26:24;9.10;99.90
20380;DHT22;10349;48.666;8.948;2023-03-14T12:42:10;9.40;99.90
20380;DHT22;10349;48.666;8.948;2023-03-14T12:44:42;9.50;99.90
20380;DHT22;10349;48.666;8.948;2023-03-14T12:49:48;9.60;99.90
20380;DHT22;10349;48.666;8.948;2023-03-14T12:52:20;9.60;99.90
20380;DHT22;10349;48.666;8.948;2023-03-14T12:54:57;9.60;99.90
20380;DHT22;10349;48.666;8.948;2023-03-14T13:00:39;9.20;99.90
20380;DHT22;10349;48.666;8.948;2023-03-14T13:03:18;9.00;99.90
20380;DHT22;10349;48.666;8.948;2023-03-14T13:05:58;8.70;99.90
20380;DHT22;10349;48.666;8.948;2023-03-14T13:08:42;8.80;99.90
20380;DHT22;10349;48.666;8.948;2023-03-14T13:11:12;9.00;99.90
20380;DHT22;10349;48.666;8.948;2023-03-14T13:13:49;9.00;99.90
20380;DHT22;10349;48.666;8.948;2023-03-14T13:16:20;8.80;99.90
20380;DHT22;10349;48.666;8.948;2023-03-14T13:18:50;8.80;99.90
20380;DHT22;10349;48.666;8.948;2023-03-14T13:21:27;8.60;99.90
20380;DHT22;10349;48.666;8.948;2023-03-14T13:24:03;8.60;99.90
20380;DHT22;10349;48.666;8.948;2023-03-14T13:26:41;8.60;99.90
20380;DHT22;10349;48.666;8.948;2023-03-14T13:29:20;8.50;99.90
20380;DHT22;10349;48.666;8.948;2023-03-14T13:31:48;8.40;99.90
20380;DHT22;10349;48.666;8.948;2023-03-14T13:34:14;8.50;99.90
20380;DHT22;10349;48.666;8.948;2023-03-14T13:36:40;8.40;99.90
20380;DHT22;10349;48.666;8.948;2023-03-14T13:39:20;8.20;99.90
20380;DHT22;10349;48.666;8.948;2023-03-14T13:41:50;8.30;99.90
20380;DHT22;10349;48.666;8.948;2023-03-14T13:44:29;8.20;99.90
20380;DHT22;10349;48.666;8.948;2023-03-14T13:47:00;8.30;99.90
20380;DHT22;10349;48.666;8.948;2023-03-14T13:49:28;8.20;99.90
20380;DHT22;10349;48.666;8.948;2023-03-14T13:51:54;8.20;99.90
20380;DHT22;10349;48.666;8.948;2023-03-14T13:54:21;8.20;99.90
20380;DHT22;10349;48.666;8.948;2023-03-14T13:56:48;8.00;99.90
20380;DHT22;10349;48.666;8.948;2023-03-14T13:59:28;8.10;99.90
20380;DHT22;10349;48.666;8.948;2023-03-14T14:01:55;8.10;99.90
20380;DHT22;10349;48.666;8.948;2023-03-14T14:04:23;8.10;99.90
20380;DHT22;10349;48.666;8.948;2023-03-14T14:06:53;8.00;99.90
20380;DHT22;10349;48.666;8.948;2023-03-14T14:09:22;8.10;99.90
20380;DHT22;10349;48.666;8.948;2023-03-14T14:11:54;8.10;99.90
20380;DHT22;10349;48.666;8.948;2023-03-14T14:14:38;8.10;99.90
20380;DHT22;10349;48.666;8.948;2023-03-14T14:17:09;8.20;99.90
20380;DHT22;10349;48.666;8.948;2023-03-14T14:19:37;8.10;99.90
20380;DHT22;10349;48.666;8.948;2023-03-14T14:22:04;8.10;99.90
20380;DHT22;10349;48.666;8.948;2023-03-14T14:24:31;8.00;99.90
20380;DHT22;10349;48.666;8.948;2023-03-14T14:29:40;7.90;99.90
20380;DHT22;10349;48.666;8.948;2023-03-14T14:34:39;7.80;99.90
20380;DHT22;10349;48.666;8.948;2023-03-14T14:37:16;7.70;99.90
20380;DHT22;10349;48.666;8.948;2023-03-14T14:39:42;7.70;99.90
20380;DHT22;10349;48.666;8.948;2023-03-14T14:42:14;7.70;99.90
20380;DHT22;10349;48.666;8.948;2023-03-14T14:44:42;7.70;99.90
20380;DHT22;10349;48.666;8.948;2023-03-14T14:47:15;7.70;99.90
20380;DHT22;10349;48.666;8.948;2023-03-14T14:49:41;7.70;99.90
20380;DHT22;10349;48.666;8.948;2023-03-14T14:52:17;7.70;99.90
20380;DHT22;10349;48.666;8.948;2023-03-14T14:54:54;7.70;99.90
20380;DHT22;10349;48.666;8.948;2023-03-14T14:57:25;7.70;99.90
20380;DHT22;10349;48.666;8.948;2023-03-14T15:00:40;7.80;99.90
20380;DHT22;10349;48.666;8.948;2023-03-14T15:02:49;7.90;99.90
20380;DHT22;10349;48.666;8.948;2023-03-14T15:05:22;7.90;99.90
20380;DHT22;10349;48.666;8.948;2023-03-14T15:07:49;7.90;99.90
20380;DHT22;10349;48.666;8.948;2023-03-14T15:10:17;7.90;99.90
20380;DHT22;10349;48.666;8.948;2023-03-14T15:12:43;7.90;99.90
20380;DHT22;10349;48.666;8.948;2023-03-14T15:15:09;7.90;99.90
20380;DHT22;10349;48.666;8.948;2023-03-14T15:17:35;8.00;99.90
20380;DHT22;10349;48.666;8.948;2023-03-14T15:20:06;8.00;99.90
20380;DHT22;10349;48.666;8.948;2023-03-14T15:22:32;8.00;99.90
20380;DHT22;10349;48.666;8.948;2023-03-14T15:24:58;7.80;99.90
20380;DHT22;10349;48.666;8.948;2023-03-14T15:27:24;7.80;99.90
20380;DHT22;10349;48.666;8.948;2023-03-14T15:29:50;7.80;99.90
20380;DHT22;10349;48.666;8.948;2023-03-14T15:32:16;7.70;99.90
20380;DHT22;10349;48.666;8.948;2023-03-14T15:34:44;7.70;99.90
20380;DHT22;10349;48.666;8.948;2023-03-14T15:37:12;7.70;99.90
20380;DHT22;10349;48.666;8.948;2023-03-14T15:39:38;7.80;99.90
20380;DHT22;10349;48.666;8.948;2023-03-14T15:42:04;7.70;99.90
20380;DHT22;10349;48.666;8.948;2023-03-14T15:44:30;7.70;99.90
20380;DHT22;10349;48.666;8.948;2023-03-14T15:46:56;7.70;99.90
20380;DHT22;10349;48.666;8.948;2023-03-14T15:49:21;7.70;99.90
20380;DHT22;10349;48.666;8.948;2023-03-14T15:51:47;7.70;99.90
20380;DHT22;10349;48.666;8.948;2023-03-14T15:54:12;7.70;99.90
20380;DHT22;10349;48.666;8.948;2023-03-14T15:56:38;7.70;99.90
20380;DHT22;10349;48.666;8.948;2023-03-14T15:59:04;7.70;99.90
20380;DHT22;10349;48.666;8.948;2023-03-14T16:01:29;7.70;99.90
20380;DHT22;10349;48.666;8.948;2023-03-14T16:03:55;7.70;99.90
20380;DHT22;10349;48.666;8.948;2023-03-14T16:06:21;7.60;99.90
20380;DHT22;10349;48.666;8.948;2023-03-14T16:08:46;7.60;99.90
20380;DHT22;10349;48.666;8.948;2023-03-14T16:11:14;7.60;99.90
20380;DHT22;10349;48.666;8.948;2023-03-14T16:13:40;7.60;99.90
20380;DHT22;10349;48.666;8.948;2023-03-14T16:16:07;7.60;99.90
20380;DHT22;10349;48.666;8.948;2023-03-14T16:18:36;7.60;99.90
20380;DHT22;10349;48.666;8.948;2023-03-14T16:21:06;7.60;99.90
20380;DHT22;10349;48.666;8.948;2023-03-14T16:23:34;7.50;99.90
20380;DHT22;10349;48.666;8.948;2023-03-14T16:26:04;7.50;99.90
20380;DHT22;10349;48.666;8.948;2023-03-14T16:28:30;7.50;99.90
20380;DHT22;10349;48.666;8.948;2023-03-14T16:31:10;7.50;99.90
20380;DHT22;10349;48.666;8.948;2023-03-14T16:33:37;7.40;99.90
20380;DHT22;10349;48.666;8.948;2023-03-14T16:36:06;7.30;99.90
20380;DHT22;10349;48.666;8.948;2023-03-14T16:38:37;7.30;99.90
20380;DHT22;10349;48.666;8.948;2023-03-14T16:41:17;7.30;99.90
20380;DHT22;10349;48.666;8.948;2023-03-14T16:43:43;7.20;99.90
20380;DHT22;10349;48.666;8.948;2023-03-14T16:46:16;7.20;99.90
20380;DHT22;10349;48.666;8.948;2023-03-14T16:48:42;7.20;99.90
20380;DHT22;10349;48.666;8.948;2023-03-14T16:51:09;7.10;99.90
20380;DHT22;10349;48.666;8.948;2023-03-14T16:53:35;7.10;99.90
20380;DHT22;10349;48.666;8.948;2023-03-14T16:56:01;7.10;99.90
20380;DHT22;10349;48.666;8.948;2023-03-14T16:58:27;7.00;99.90
20380;DHT22;10349;48.666;8.948;2023-03-14T17:00:52;7.00;99.90
20380;DHT22;10349;48.666;8.948;2023-03-14T17:03:18;6.80;99.90